createdAt,value
2018-09-11T00:55:45.589Z,23.77
2018-09-11T00:58:15.914Z,23.87
2018-09-11T01:00:46.232Z,23.97
2018-09-11T01:05:59.497Z,24.10
2018-09-11T01:08:29.808Z,24.20
2018-09-11T01:12:18.929Z,24.29
2018-09-11T01:14:49.624Z,24.39
2018-09-11T01:17:19.937Z,24.46
2018-09-11T01:19:50.237Z,24.51
2018-09-11T01:22:20.493Z,24.55
2018-09-11T01:24:50.776Z,24.60
2018-09-11T01:27:21.158Z,24.62
2018-09-11T01:29:51.597Z,24.65
2018-09-11T01:32:21.913Z,24.67
2018-09-11T01:34:52.239Z,24.69
2018-09-11T01:37:22.498Z,24.71
2018-09-11T01:39:52.849Z,24.73
2018-09-11T01:42:23.185Z,24.75
2018-09-11T01:44:53.542Z,24.76
2018-09-11T01:47:23.849Z,24.79
2018-09-11T01:49:54.205Z,24.83
2018-09-11T01:52:24.561Z,24.85
2018-09-11T01:54:54.922Z,24.87
2018-09-11T01:57:25.236Z,24.88
2018-09-11T01:59:55.477Z,24.89
2018-09-11T02:02:26.786Z,24.91
2018-09-11T02:05:08.613Z,24.90
2018-09-11T02:07:50.361Z,24.89
2018-09-11T02:10:21.800Z,24.90
2018-09-11T02:13:03.957Z,24.90
2018-09-11T02:15:35.390Z,24.90
2018-09-11T02:18:06.904Z,24.91
2018-09-11T02:20:38.351Z,24.90
2018-09-11T02:23:09.869Z,24.89
2018-09-11T02:25:41.409Z,24.88
2018-09-11T02:28:12.969Z,24.87
2018-09-11T02:30:55.109Z,24.86
2018-09-11T02:33:26.549Z,24.87
2018-09-11T02:36:08.741Z,24.87
2018-09-11T02:38:45.283Z,24.86
2018-09-11T02:41:47.080Z,24.83
2018-09-11T02:44:19.565Z,24.77
2018-09-11T02:46:50.981Z,24.76
2018-09-11T02:49:22.527Z,24.75
2018-09-11T02:51:54.033Z,24.75
2018-09-11T02:54:25.525Z,24.73
2018-09-11T02:56:56.979Z,24.70
2018-09-11T02:59:28.389Z,24.70
2018-09-11T03:01:59.805Z,24.69
2018-09-11T03:04:31.209Z,24.67
2018-09-11T03:07:02.718Z,24.66
2018-09-11T03:09:34.187Z,24.66
2018-09-11T03:12:05.540Z,24.65
2018-09-11T03:14:36.965Z,24.63
2018-09-11T03:17:08.657Z,24.62
2018-09-11T03:19:40.064Z,24.60
2018-09-11T03:22:12.468Z,24.60
2018-09-11T03:24:43.957Z,24.59
2018-09-11T03:27:15.406Z,24.59
2018-09-11T03:29:47.973Z,24.58
2018-09-11T03:32:19.945Z,24.57
2018-09-11T03:34:51.761Z,24.57
2018-09-11T03:37:23.584Z,24.57
2018-09-11T03:39:55.034Z,24.55
2018-09-11T03:42:26.445Z,24.54
2018-09-11T03:44:57.930Z,24.53
2018-09-11T03:47:29.391Z,24.52
2018-09-11T03:50:00.798Z,24.50
2018-09-11T03:52:32.293Z,24.49
2018-09-11T03:55:03.720Z,24.49
2018-09-11T03:57:35.118Z,24.50
2018-09-11T04:00:07.047Z,24.48
2018-09-11T04:02:38.518Z,24.48
2018-09-11T04:05:09.990Z,24.46
2018-09-11T04:07:41.433Z,24.45
2018-09-11T04:10:12.861Z,24.44
2018-09-11T04:12:44.273Z,24.43
2018-09-11T04:15:15.706Z,24.40
2018-09-11T04:17:48.613Z,24.37
2018-09-11T04:20:20.113Z,24.36
2018-09-11T04:22:51.700Z,24.35
2018-09-11T04:25:23.217Z,24.35
2018-09-11T04:27:54.782Z,24.36
2018-09-11T04:30:26.228Z,24.36
2018-09-11T04:32:57.659Z,24.36
2018-09-11T04:35:29.201Z,24.36
2018-09-11T04:38:00.637Z,24.37
2018-09-11T04:40:32.059Z,24.39
2018-09-11T04:43:03.520Z,24.40
2018-09-11T04:45:34.936Z,24.40
2018-09-11T04:48:06.350Z,24.38
2018-09-11T04:50:37.816Z,24.36
2018-09-11T04:53:09.269Z,24.34
2018-09-11T04:55:40.670Z,24.34
2018-09-11T04:58:12.169Z,24.35
2018-09-11T05:00:43.598Z,24.34
2018-09-11T05:03:15.048Z,24.34
2018-09-11T05:05:46.453Z,24.34
2018-09-11T05:08:18.837Z,24.31
2018-09-11T05:10:50.655Z,24.30
2018-09-11T05:13:23.338Z,24.30
2018-09-11T05:15:54.753Z,24.29
2018-09-11T05:18:26.237Z,24.27
2018-09-11T05:20:57.690Z,24.22
2018-09-11T05:23:29.224Z,24.20
2018-09-11T05:26:00.693Z,24.21
2018-09-11T05:28:32.106Z,24.23
2018-09-11T05:31:03.549Z,24.26
2018-09-11T05:33:34.938Z,24.25
2018-09-11T05:36:06.356Z,24.25
2018-09-11T05:38:37.848Z,24.26
2018-09-11T05:41:09.271Z,24.27
2018-09-11T05:43:40.705Z,24.26
2018-09-11T05:46:12.205Z,24.24
2018-09-11T05:48:43.633Z,24.18
2018-09-11T05:51:15.181Z,24.05
2018-09-11T05:53:46.717Z,24.01
2018-09-11T05:56:18.217Z,23.99
2018-09-11T05:58:50.493Z,23.96
2018-09-11T06:01:22.038Z,23.92
2018-09-11T06:03:53.480Z,23.87
2018-09-11T06:06:24.917Z,23.82
2018-09-11T06:08:56.341Z,23.75
2018-09-11T06:11:27.822Z,23.74
2018-09-11T06:14:05.735Z,23.73
2018-09-11T06:16:38.650Z,23.75
2018-09-11T06:19:10.697Z,23.75
2018-09-11T06:21:42.229Z,23.75
2018-09-11T06:24:13.616Z,23.73
2018-09-11T06:26:45.065Z,23.72
2018-09-11T06:29:16.553Z,23.72
2018-09-11T06:31:48.085Z,23.73
2018-09-11T06:34:19.618Z,23.75
2018-09-11T06:36:51.648Z,23.73
2018-09-11T06:39:23.101Z,23.71
2018-09-11T06:41:54.566Z,23.71
2018-09-11T06:44:25.986Z,23.72
2018-09-11T06:46:57.510Z,23.77
2018-09-11T06:49:28.886Z,23.81
2018-09-11T06:52:00.298Z,23.82
2018-09-11T06:54:31.729Z,23.83
2018-09-11T06:57:03.806Z,23.85
2018-09-11T06:59:35.434Z,23.83
2018-09-11T07:02:06.928Z,23.85
2018-09-11T07:04:38.430Z,23.88
2018-09-11T07:07:09.933Z,23.89
2018-09-11T07:09:41.348Z,23.92
2018-09-11T07:12:12.785Z,23.94
2018-09-11T07:14:44.255Z,23.96
2018-09-11T07:17:17.194Z,23.97
2018-09-11T07:19:48.727Z,23.97
2018-09-11T07:22:20.165Z,23.99
2018-09-11T07:24:51.737Z,24.02
2018-09-11T07:27:23.193Z,24.05
2018-09-11T07:29:54.869Z,24.09
2018-09-11T07:32:26.407Z,24.09
2018-09-11T07:34:58.093Z,24.11
2018-09-11T07:37:29.701Z,24.16
2018-09-11T07:40:01.145Z,24.15
2018-09-11T07:42:32.705Z,24.18
2018-09-11T07:45:04.302Z,24.21
2018-09-11T07:47:49.129Z,24.21
2018-09-11T07:50:20.561Z,24.25
2018-09-11T07:52:52.076Z,24.28
2018-09-11T07:55:23.477Z,24.33
2018-09-11T07:57:54.928Z,24.37
2018-09-11T08:00:26.455Z,24.39
2018-09-11T08:02:57.926Z,24.41
2018-09-11T08:05:29.341Z,24.46
2018-09-11T08:08:00.872Z,24.52
2018-09-11T08:10:32.301Z,24.57
2018-09-11T08:13:03.822Z,24.62
2018-09-11T08:15:35.377Z,24.65
2018-09-11T08:18:07.262Z,24.69
2018-09-11T08:20:38.793Z,24.74
2018-09-11T08:23:10.366Z,24.78
2018-09-11T08:25:42.013Z,24.81
2018-09-11T08:28:13.469Z,24.84
2018-09-11T08:30:45.010Z,24.89
2018-09-11T08:33:16.613Z,24.93
2018-09-11T08:35:49.158Z,24.95
2018-09-11T08:38:20.749Z,24.98
2018-09-11T08:40:52.264Z,24.99
2018-09-11T08:43:23.729Z,25.00
2018-09-11T08:45:55.242Z,25.02
2018-09-11T08:48:26.781Z,25.02
2018-09-11T08:50:58.348Z,25.00
2018-09-11T08:53:29.806Z,24.99
2018-09-11T08:56:01.243Z,25.00
2018-09-11T08:58:33.202Z,25.05
2018-09-11T09:01:04.938Z,25.09
2018-09-11T09:03:37.023Z,25.10
2018-09-11T09:06:08.598Z,25.12
2018-09-11T09:11:23.333Z,25.12
2018-09-11T09:13:54.981Z,25.10
2018-09-11T09:16:39.063Z,25.11
2018-09-11T09:19:10.646Z,25.11
2018-09-11T09:21:42.526Z,25.12
2018-09-11T09:24:14.226Z,25.13
2018-09-11T09:26:45.842Z,25.13
2018-09-11T09:29:17.910Z,25.16
2018-09-11T09:31:49.665Z,25.16
2018-09-11T09:34:22.288Z,25.17
2018-09-11T09:38:44.533Z,25.12
2018-09-11T09:41:16.501Z,25.17
2018-09-11T09:43:48.827Z,25.22
2018-09-11T09:46:20.505Z,25.24
2018-09-11T09:48:53.457Z,25.25
2018-09-11T09:51:25.420Z,25.28
2018-09-11T09:53:56.962Z,25.27
2018-09-11T09:56:28.766Z,25.29
2018-09-11T09:59:00.201Z,25.30
2018-09-11T10:01:36.934Z,25.34
2018-09-11T10:04:13.672Z,25.35
2018-09-11T10:06:45.761Z,25.38
2018-09-11T10:09:17.699Z,25.39
2018-09-11T10:11:49.201Z,25.39
2018-09-11T10:14:20.661Z,25.40
2018-09-11T10:16:52.189Z,25.42
2018-09-11T10:19:23.705Z,25.42
2018-09-11T10:21:55.195Z,25.41
2018-09-11T10:24:26.645Z,25.42
2018-09-11T10:26:58.304Z,25.42
2018-09-11T10:29:29.890Z,25.46
2018-09-11T10:32:01.416Z,25.48
2018-09-11T10:34:32.973Z,25.50
2018-09-11T10:37:04.515Z,25.52
2018-09-11T10:39:36.082Z,25.54
2018-09-11T10:42:08.407Z,25.58
2018-09-11T10:44:39.887Z,25.62
2018-09-11T10:47:11.329Z,25.64
2018-09-11T10:49:42.865Z,25.68
2018-09-11T10:52:15.117Z,25.71
2018-09-11T10:54:46.533Z,25.71
2018-09-11T10:57:18.153Z,25.70
2018-09-11T11:02:17.179Z,25.78
2018-09-11T11:04:48.678Z,25.79
2018-09-11T11:07:20.214Z,25.83
2018-09-11T11:09:51.909Z,25.90
2018-09-11T11:12:23.395Z,25.96
2018-09-11T11:14:54.825Z,26.00
2018-09-11T11:17:26.296Z,26.03
2018-09-11T11:19:57.817Z,26.03
2018-09-11T11:22:29.298Z,26.05
2018-09-11T11:25:00.737Z,26.06
2018-09-11T11:27:32.277Z,26.08
2018-09-11T11:30:03.729Z,26.10
2018-09-11T11:32:35.213Z,26.12
2018-09-11T11:35:06.724Z,26.13
2018-09-11T11:37:38.169Z,26.13
2018-09-11T11:40:09.606Z,26.14
2018-09-11T11:43:03.966Z,26.18
2018-09-11T11:45:37.001Z,26.19
2018-09-11T11:48:20.481Z,26.21
2018-09-11T11:50:53.022Z,26.25
2018-09-11T11:53:36.482Z,26.28
2018-09-11T11:56:09.736Z,26.27
2018-09-11T11:58:53.109Z,26.23
2018-09-11T12:01:25.940Z,26.20
2018-09-11T12:04:09.287Z,26.18
2018-09-11T12:06:41.873Z,26.17
2018-09-11T12:09:25.240Z,26.20
2018-09-11T12:11:57.845Z,26.23
2018-09-11T12:14:41.209Z,26.23
2018-09-11T12:17:13.853Z,26.25
2018-09-11T12:19:58.033Z,26.28
2018-09-11T12:22:30.869Z,26.30
2018-09-11T12:25:14.873Z,26.31
2018-09-11T12:27:47.472Z,26.30
2018-09-11T12:30:30.857Z,26.31
2018-09-11T12:33:03.473Z,26.30
2018-09-11T12:35:46.910Z,26.29
2018-09-11T12:38:19.606Z,26.31
2018-09-11T12:41:03.089Z,26.36
2018-09-11T12:43:35.689Z,26.37
2018-09-11T12:46:19.478Z,26.34
2018-09-11T12:48:52.084Z,26.35
2018-09-11T12:51:35.373Z,26.38
2018-09-11T12:54:08.015Z,26.39
2018-09-11T12:56:51.367Z,26.36
2018-09-11T12:59:24.053Z,26.32
2018-09-11T13:03:40.274Z,26.20
2018-09-11T13:06:11.801Z,26.23
2018-09-11T13:08:43.228Z,26.29
2018-09-11T13:11:14.709Z,26.33
2018-09-11T13:13:46.156Z,26.34
2018-09-11T13:16:17.657Z,26.35
2018-09-11T13:18:49.217Z,26.36
2018-09-11T13:21:20.713Z,26.38
2018-09-11T13:23:52.174Z,26.40
2018-09-11T13:26:24.625Z,26.40
2018-09-11T13:28:56.321Z,26.39
2018-09-11T13:31:28.533Z,26.39
2018-09-11T13:33:59.962Z,26.41
2018-09-11T13:36:31.403Z,26.41
2018-09-11T13:39:05.378Z,26.42
2018-09-11T13:41:36.845Z,26.42
2018-09-11T13:44:08.389Z,26.39
2018-09-11T13:46:39.834Z,26.40
2018-09-11T13:49:11.453Z,26.41
2018-09-11T13:51:43.012Z,26.41
2018-09-11T13:54:14.438Z,26.41
2018-09-11T13:56:45.848Z,26.42
2018-09-11T13:59:17.266Z,26.44
2018-09-11T14:01:48.684Z,26.46
2018-09-11T14:04:20.121Z,26.47
2018-09-11T14:06:51.597Z,26.45
2018-09-11T14:09:23.006Z,26.47
2018-09-11T14:11:54.493Z,26.47
2018-09-11T14:14:26.082Z,26.46
2018-09-11T14:16:57.497Z,26.48
2018-09-11T14:19:28.925Z,26.53
2018-09-11T14:22:00.345Z,26.54
2018-09-11T14:24:31.773Z,26.52
2018-09-11T14:27:03.417Z,26.49
2018-09-11T14:29:34.842Z,26.50
2018-09-11T14:32:06.434Z,26.50
2018-09-11T14:34:38.013Z,26.50
2018-09-11T14:37:09.397Z,26.47
2018-09-11T14:39:40.929Z,26.48
2018-09-11T14:42:12.351Z,26.50
2018-09-11T14:44:43.927Z,26.50
2018-09-11T14:47:16.225Z,26.47
2018-09-11T14:49:47.638Z,26.47
2018-09-11T14:52:19.102Z,26.47
2018-09-11T14:54:50.601Z,26.46
2018-09-11T14:57:22.119Z,26.48
2018-09-11T14:59:53.513Z,26.53
2018-09-11T15:02:24.913Z,26.59
2018-09-11T15:04:56.787Z,26.57
2018-09-11T15:07:28.285Z,26.55
2018-09-11T15:09:59.779Z,26.54
2018-09-11T15:12:31.202Z,26.56
2018-09-11T15:15:02.626Z,26.59
2018-09-11T15:17:34.034Z,26.63
2018-09-11T15:20:05.575Z,26.62
2018-09-11T15:22:37.096Z,26.59
2018-09-11T15:25:08.529Z,26.59
2018-09-11T15:27:39.957Z,26.58
2018-09-11T15:30:11.385Z,26.58
2018-09-11T15:32:42.911Z,26.56
2018-09-11T15:35:14.351Z,26.53
2018-09-11T15:37:46.392Z,26.50
2018-09-11T15:40:17.833Z,26.49
2018-09-11T15:42:49.378Z,26.52
